Date,TemperatureHighF,TemperatureAvgF,TemperatureLowF,DewpointHighF,DewpointAvgF,DewpointLowF,HumidityHigh,HumidityAvg,HumidityLow,PressureMaxIn,PressureMinIn,WindSpeedMaxMPH,WindSpeedAvgMPH,GustSpeedMaxMPH,PrecipitationSumIn
2013-2-1,13.8,10.7,5.6,4.8,0.9,-2.0,70,64,55,30.38,30.04,10,2,13,0.00
2013-2-2,25.1,19.6,12.9,20.0,14.4,4.6,84,80,69,30.29,29.98,5,1,10,0.00
2013-2-3,21.8,17.5,14.9,13.7,11.1,8.2,85,76,66,30.09,29.95,7,1,11,0.00
2013-2-4,24.5,20.9,14.0,21.0,17.3,9.2,89,86,78,30.10,29.86,5,1,9,0.00
2013-2-5,31.0,23.9,12.1,27.4,19.3,9.2,91,83,64,30.00,29.84,5,0,7,0.09
2013-2-6,30.9,27.3,22.2,25.7,17.7,13.9,85,67,54,30.29,30.01,6,1,10,0.03
2013-2-7,37.8,30.3,23.6,31.1,23.7,17.9,91,76,67,30.25,29.79,7,2,10,0.14
2013-2-8,33.7,30.8,21.3,32.1,24.8,16.3,94,79,63,30.36,29.78,11,2,14,0.04
2013-2-9,32.9,24.2,13.1,21.8,17.4,9.4,89,76,60,30.46,30.25,5,1,10,0.00
2013-2-10,47.0,36.2,25.7,45.0,30.0,21.3,93,79,63,30.25,29.67,7,1,9,0.08
2013-2-11,47.9,38.0,31.2,45.4,28.8,20.3,93,70,60,29.98,29.60,16,4,20,0.01
2013-2-12,38.6,31.8,28.7,25.5,22.1,19.8,75,67,57,30.11,29.95,6,1,10,0.00
2013-2-13,28.8,27.1,25.8,21.9,21.2,20.7,82,78,74,29.95,29.84,2,0,3,0.00
2013-2-14,43.3,38.3,33.1,34.9,28.6,21.5,75,68,59,29.95,29.72,11,3,16,0.00
2013-2-15,33.4,28.7,20.8,25.4,18.9,12.4,84,67,48,30.17,29.94,5,1,10,0.00
2013-2-16,25.0,20.4,13.5,18.3,12.2,0.0,85,71,44,30.15,30.06,9,1,11,0.00
2013-2-17,29.1,19.6,11.9,12.4,8.2,3.5,81,63,38,30.25,30.13,4,0,7,0.00
2013-2-18,53.9,36.9,19.2,40.5,24.8,11.4,86,62,50,30.20,29.57,7,2,19,0.09
2013-2-19,44.3,23.7,15.1,41.5,16.9,6.2,90,75,61,30.09,29.47,12,4,19,0.05
2013-2-20,23.5,19.2,14.0,14.7,10.5,6.3,73,69,62,30.33,30.09,7,2,14,0.00
2013-2-21,26.9,23.1,20.6,17.9,14.7,11.7,75,70,64,30.40,30.17,13,3,18,0.00
2013-2-22,34.3,27.9,20.2,33.2,25.8,14.0,96,92,73,30.18,29.89,15,3,22,0.08
2013-2-23,31.5,28.5,25.7,29.4,20.9,18.5,92,73,64,29.98,29.92,5,1,9,0.01
2013-2-24,37.2,28.7,21.6,22.8,19.7,17.6,86,70,54,30.18,29.96,4,1,6,0.02
2013-2-25,40.2,29.4,17.0,26.9,21.9,14.3,92,75,55,30.23,30.03,9,2,12,0.00
2013-2-26,34.1,31.9,29.3,32.8,28.2,22.8,95,86,74,30.03,29.44,14,3,20,0.84
2013-2-27,34.1,32.9,31.0,33.0,31.5,29.2,96,95,93,29.62,29.44,4,1,11,0.29
2013-2-28,37.5,34.0,31.2,32.1,30.7,29.4,94,88,77,29.96,29.60,4,1,7,0.13